createdAt,value
2022-09-18T00:00:10.300Z,87.40
2022-09-18T00:02:40.863Z,87.83
2022-09-18T00:05:11.501Z,88.24
2022-09-18T00:07:41.982Z,88.43
2022-09-18T00:10:12.276Z,88.47
2022-09-18T00:12:42.680Z,88.63
2022-09-18T00:15:13.183Z,88.61
2022-09-18T00:17:43.681Z,88.75
2022-09-18T00:20:14.126Z,88.72
2022-09-18T00:22:44.579Z,88.68
2022-09-18T00:25:15.134Z,88.65
2022-09-18T00:27:45.627Z,88.73
2022-09-18T00:30:16.247Z,88.44
2022-09-18T00:32:46.727Z,88.37
2022-09-18T00:35:17.240Z,88.46
2022-09-18T00:37:47.543Z,88.58
2022-09-18T00:40:18.212Z,88.23
2022-09-18T00:42:48.637Z,88.47
2022-09-18T00:45:19.106Z,88.62
2022-09-18T00:47:51.983Z,88.54
2022-09-18T00:50:25.331Z,88.63
2022-09-18T00:53:03.241Z,88.51
2022-09-18T00:55:38.774Z,88.48
2022-09-18T00:58:10.157Z,88.36
2022-09-18T01:00:40.521Z,88.43
2022-09-18T01:03:12.583Z,88.39
2022-09-18T01:06:11.733Z,88.34
2022-09-18T01:08:56.881Z,88.70
2022-09-18T01:11:39.353Z,88.54
2022-09-18T01:14:30.712Z,88.49
2022-09-18T01:17:16.038Z,88.20
2022-09-18T01:20:23.942Z,88.37
2022-09-18T01:23:26.241Z,88.42
2022-09-18T01:26:02.737Z,88.12
2022-09-18T01:28:42.121Z,88.02
2022-09-18T01:31:21.546Z,88.21
2022-09-18T01:34:04.563Z,88.32
2022-09-18T01:36:38.826Z,88.25
2022-09-18T01:39:21.338Z,88.03
2022-09-18T01:41:55.981Z,88.09
2022-09-18T01:44:29.605Z,87.61
2022-09-18T01:47:02.257Z,88.05
2022-09-18T01:49:35.699Z,88.18
2022-09-18T01:52:12.290Z,88.39
2022-09-18T01:54:45.894Z,88.03
2022-09-18T01:57:22.305Z,87.94
2022-09-18T02:00:10.896Z,87.72
2022-09-18T02:03:02.308Z,88.24
2022-09-18T02:05:38.807Z,87.93
2022-09-18T02:08:17.960Z,87.69
2022-09-18T02:10:51.431Z,86.86
2022-09-18T02:13:24.840Z,87.44
2022-09-18T02:15:58.324Z,87.65
2022-09-18T02:18:31.756Z,87.80
2022-09-18T02:21:02.539Z,87.85
2022-09-18T02:23:34.501Z,88.10
2022-09-18T02:26:07.168Z,88.01
2022-09-18T02:28:39.813Z,88.47
2022-09-18T02:31:13.087Z,88.61
2022-09-18T02:33:44.757Z,88.81
2022-09-18T02:36:43.307Z,88.73
2022-09-18T02:39:37.459Z,88.77
2022-09-18T02:42:22.952Z,89.14
2022-09-18T02:45:04.773Z,89.07
2022-09-18T02:48:02.664Z,89.06
2022-09-18T02:50:45.137Z,88.81
2022-09-18T02:53:36.808Z,88.67
2022-09-18T02:56:21.157Z,88.88
2022-09-18T02:59:00.597Z,89.03
2022-09-18T03:01:33.175Z,89.06
2022-09-18T03:04:06.128Z,89.00
2022-09-18T03:06:36.450Z,88.96
2022-09-18T03:09:06.852Z,88.95
2022-09-18T03:11:37.448Z,88.99
2022-09-18T03:14:07.744Z,88.94
2022-09-18T03:16:38.173Z,89.18
2022-09-18T03:19:08.648Z,89.11
2022-09-18T03:21:39.085Z,89.00
2022-09-18T03:24:09.318Z,89.00
2022-09-18T03:26:39.841Z,89.00
2022-09-18T03:29:11.065Z,88.84
2022-09-18T03:31:41.914Z,88.84
2022-09-18T03:34:12.362Z,88.91
2022-09-18T03:36:42.749Z,88.48
2022-09-18T03:39:14.271Z,88.45
2022-09-18T03:41:45.084Z,88.63
2022-09-18T03:44:15.547Z,88.58
2022-09-18T03:46:46.130Z,88.51
2022-09-18T03:49:16.609Z,88.17
2022-09-18T03:51:47.010Z,88.06
2022-09-18T03:54:17.462Z,88.31
2022-09-18T03:56:49.005Z,88.39
2022-09-18T03:59:19.402Z,88.18
2022-09-18T04:01:49.904Z,88.16
2022-09-18T04:04:20.325Z,87.99
2022-09-18T04:06:51.128Z,87.65
2022-09-18T04:09:21.526Z,87.99
2022-09-18T04:11:51.944Z,87.63
2022-09-18T04:14:25.625Z,87.49
2022-09-18T04:16:54.885Z,87.22
2022-09-18T04:19:25.252Z,87.19
2022-09-18T04:21:55.573Z,87.41
2022-09-18T04:24:25.976Z,87.42
2022-09-18T04:26:56.358Z,86.98
2022-09-18T04:29:26.808Z,86.55
2022-09-18T04:31:57.134Z,86.50
2022-09-18T04:34:27.534Z,86.83
2022-09-18T04:36:57.896Z,86.35
2022-09-18T04:39:28.456Z,86.47
2022-09-18T04:41:59.528Z,86.48
2022-09-18T04:44:29.901Z,86.39
2022-09-18T04:47:00.539Z,86.47
2022-09-18T04:49:30.982Z,86.09
2022-09-18T04:52:01.397Z,86.32
2022-09-18T04:54:31.870Z,86.54
2022-09-18T04:57:02.225Z,86.16
2022-09-18T04:59:32.896Z,85.53
2022-09-18T05:02:03.362Z,85.69
2022-09-18T05:04:33.787Z,86.01
2022-09-18T05:07:05.154Z,85.54
2022-09-18T05:09:36.153Z,85.67
2022-09-18T05:12:06.860Z,85.65
2022-09-18T05:14:37.312Z,85.78
2022-09-18T05:17:07.743Z,85.83
2022-09-18T05:19:38.244Z,85.98
2022-09-18T05:22:08.735Z,85.51
2022-09-18T05:24:39.087Z,84.68
2022-09-18T05:27:10.234Z,85.19
2022-09-18T05:29:40.959Z,84.88
2022-09-18T05:32:11.376Z,84.77
2022-09-18T05:34:42.934Z,84.45
2022-09-18T05:37:13.451Z,84.80
2022-09-18T05:39:43.912Z,84.42
2022-09-18T05:42:14.301Z,84.54
2022-09-18T05:44:44.693Z,84.18
2022-09-18T05:47:15.193Z,83.74
2022-09-18T05:49:45.608Z,84.14
2022-09-18T05:52:15.992Z,83.87
2022-09-18T05:54:46.287Z,84.43
2022-09-18T05:57:16.788Z,84.10
2022-09-18T05:59:47.127Z,84.14
2022-09-18T06:02:17.636Z,83.68
2022-09-18T06:04:48.193Z,83.76
2022-09-18T06:07:18.518Z,83.71
2022-09-18T06:09:49.427Z,84.03
2022-09-18T06:12:19.964Z,83.48
2022-09-18T06:14:50.324Z,83.83
2022-09-18T06:17:20.894Z,83.70
2022-09-18T06:19:51.223Z,83.65
2022-09-18T06:22:21.724Z,83.63
2022-09-18T06:24:52.337Z,83.01
2022-09-18T06:27:22.833Z,83.29
2022-09-18T06:29:54.137Z,83.06
2022-09-18T06:32:24.431Z,83.39
2022-09-18T06:34:54.897Z,83.06
2022-09-18T06:37:25.224Z,82.19
2022-09-18T06:39:55.614Z,81.97
2022-09-18T06:42:26.018Z,82.12
2022-09-18T06:44:57.160Z,82.16
2022-09-18T06:47:27.515Z,82.02
2022-09-18T06:49:57.813Z,81.59
2022-09-18T06:52:28.446Z,81.53
2022-09-18T06:54:58.758Z,81.60
2022-09-18T06:57:29.175Z,81.24
2022-09-18T06:59:59.641Z,81.47
2022-09-18T07:02:30.032Z,81.19
2022-09-18T07:05:00.734Z,80.41
2022-09-18T07:07:31.171Z,80.67
2022-09-18T07:10:03.647Z,80.71
2022-09-18T07:12:33.410Z,80.21
2022-09-18T07:15:03.933Z,80.06
2022-09-18T07:17:34.727Z,80.33
2022-09-18T07:20:05.633Z,79.54
2022-09-18T07:22:35.957Z,79.07
2022-09-18T07:25:07.631Z,79.16
2022-09-18T07:27:37.971Z,78.83
2022-09-18T07:30:09.104Z,78.52
2022-09-18T07:32:39.446Z,78.38
2022-09-18T07:35:10.777Z,78.46
2022-09-18T07:37:41.098Z,77.80
2022-09-18T07:40:12.722Z,77.46
2022-09-18T07:42:43.312Z,77.16
2022-09-18T07:45:13.808Z,77.08
2022-09-18T07:47:44.130Z,77.23
2022-09-18T07:50:16.028Z,76.60
2022-09-18T07:52:58.978Z,76.78
2022-09-18T07:55:29.752Z,76.51
2022-09-18T07:58:02.194Z,76.45
2022-09-18T08:00:38.031Z,76.30
2022-09-18T08:03:13.799Z,75.45
2022-09-18T08:05:44.325Z,75.20
2022-09-18T08:08:16.355Z,74.95
2022-09-18T08:10:46.973Z,74.19
2022-09-18T08:13:17.374Z,74.52
2022-09-18T08:15:47.777Z,73.83
2022-09-18T08:18:18.179Z,73.59
2022-09-18T08:20:48.609Z,73.52
2022-09-18T08:23:18.976Z,74.03
2022-09-18T08:25:49.361Z,73.99
2022-09-18T08:28:19.734Z,73.88
2022-09-18T08:30:50.133Z,73.25
2022-09-18T08:33:20.980Z,72.91
2022-09-18T08:35:51.552Z,73.49
2022-09-18T08:38:22.006Z,72.74
2022-09-18T08:41:10.413Z,72.08
2022-09-18T08:43:55.845Z,72.07
2022-09-18T08:46:47.610Z,71.40
2022-09-18T08:49:36.907Z,71.29
2022-09-18T08:52:16.100Z,71.56
2022-09-18T08:54:58.247Z,70.43
2022-09-18T08:57:43.785Z,70.60
2022-09-18T09:00:17.287Z,69.87
2022-09-18T09:02:50.677Z,69.74
2022-09-18T09:05:24.408Z,69.83
2022-09-18T09:08:14.311Z,69.77
2022-09-18T09:11:02.822Z,70.07
2022-09-18T09:14:10.549Z,69.95
2022-09-18T09:16:52.250Z,69.28
2022-09-18T09:19:25.655Z,69.10
2022-09-18T09:22:08.318Z,67.81
2022-09-18T09:25:00.975Z,67.79
2022-09-18T09:27:34.454Z,68.93
2022-09-18T09:30:17.057Z,68.49
2022-09-18T09:33:15.066Z,68.54
2022-09-18T09:35:51.370Z,68.51
2022-09-18T09:38:27.474Z,68.01
2022-09-18T09:41:00.437Z,68.35
2022-09-18T09:43:56.454Z,66.68
2022-09-18T09:46:54.022Z,66.66
2022-09-18T09:49:30.906Z,66.16
2022-09-18T09:52:25.120Z,66.80
2022-09-18T09:55:04.770Z,67.46
2022-09-18T09:57:41.171Z,81.93
2022-09-18T10:00:19.738Z,84.66
2022-09-18T10:03:02.180Z,85.59
2022-09-18T10:05:45.013Z,86.49
2022-09-18T10:08:21.193Z,87.31
2022-09-18T10:10:59.780Z,88.00
2022-09-18T10:13:38.888Z,87.90
2022-09-18T10:16:17.992Z,87.49
2022-09-18T10:18:49.662Z,85.27
2022-09-18T10:21:22.922Z,86.08
2022-09-18T10:23:59.123Z,83.95
2022-09-18T10:26:50.679Z,82.53
2022-09-18T10:29:21.694Z,81.37
2022-09-18T10:31:57.725Z,79.43
2022-09-18T10:34:41.170Z,80.93
2022-09-18T10:37:29.638Z,80.06
2022-09-18T10:40:01.901Z,81.02
2022-09-18T10:42:35.109Z,77.83
2022-09-18T10:45:08.387Z,77.70
2022-09-18T10:47:39.159Z,78.40
2022-09-18T10:50:15.373Z,75.89
2022-09-18T10:52:47.189Z,75.96
2022-09-18T10:55:20.785Z,72.93
2022-09-18T10:57:57.064Z,71.67
2022-09-18T11:00:32.465Z,72.50
2022-09-18T11:03:15.098Z,70.34
2022-09-18T11:05:51.856Z,70.30
2022-09-18T11:08:25.284Z,67.39
2022-09-18T11:11:01.630Z,66.63
2022-09-18T11:13:33.091Z,66.57
2022-09-18T11:16:05.245Z,67.67
2022-09-18T11:18:37.276Z,67.71
2022-09-18T11:21:08.720Z,66.00
2022-09-18T11:23:40.298Z,69.51
2022-09-18T11:26:22.197Z,70.30
2022-09-18T11:29:20.180Z,73.82
2022-09-18T11:31:59.301Z,73.02
2022-09-18T11:34:35.879Z,72.48
2022-09-18T11:37:12.082Z,73.55
2022-09-18T11:39:45.602Z,62.74
2022-09-18T11:42:18.383Z,54.82
2022-09-18T11:44:48.871Z,48.35
2022-09-18T11:47:25.673Z,46.03
2022-09-18T11:50:13.827Z,43.77
2022-09-18T11:52:47.399Z,41.35
2022-09-18T11:55:39.015Z,40.49
2022-09-18T11:58:18.083Z,40.85
2022-09-18T12:01:12.746Z,42.14
2022-09-18T12:03:47.368Z,40.61
2022-09-18T12:06:41.852Z,44.10
2022-09-18T12:09:30.707Z,47.83
2022-09-18T12:12:13.297Z,53.56
2022-09-18T12:14:52.232Z,58.47
2022-09-18T12:17:40.583Z,58.50
2022-09-18T12:20:16.843Z,61.70
2022-09-18T12:22:56.408Z,67.53
2022-09-18T12:25:50.423Z,62.13
2022-09-18T12:28:28.216Z,61.77
2022-09-18T12:31:13.338Z,63.67
2022-09-18T12:33:58.601Z,59.66
2022-09-18T12:36:48.267Z,55.98
2022-09-18T12:39:33.895Z,58.28
2022-09-18T12:42:25.706Z,57.44
2022-09-18T12:45:17.508Z,54.91
2022-09-18T12:48:07.565Z,53.14
2022-09-18T12:51:00.867Z,54.78
2022-09-18T12:53:46.405Z,54.91
2022-09-18T12:56:25.540Z,56.59
2022-09-18T12:59:05.083Z,57.67
2022-09-18T13:01:45.126Z,57.66
2022-09-18T13:04:21.198Z,57.35
2022-09-18T13:07:00.342Z,59.25
2022-09-18T13:09:33.759Z,60.49
2022-09-18T13:12:07.852Z,61.61
2022-09-18T13:14:43.663Z,61.03
2022-09-18T13:17:20.304Z,61.05
2022-09-18T13:19:59.941Z,57.55
2022-09-18T13:22:33.338Z,58.58
2022-09-18T13:25:05.960Z,59.92
2022-09-18T13:27:37.253Z,58.53
2022-09-18T13:30:25.639Z,58.29
2022-09-18T13:32:57.755Z,56.98
2022-09-18T13:35:34.420Z,56.93
2022-09-18T13:38:11.178Z,57.26
2022-09-18T13:40:47.797Z,56.90
2022-09-18T13:43:30.549Z,57.77
2022-09-18T13:46:06.859Z,58.13
2022-09-18T13:48:44.363Z,58.43
2022-09-18T13:51:23.750Z,59.48
2022-09-18T13:54:24.076Z,58.54
2022-09-18T13:57:14.189Z,60.91
2022-09-18T13:59:53.392Z,60.14
2022-09-18T14:02:41.606Z,60.31
2022-09-18T14:05:39.749Z,61.21
2022-09-18T14:08:25.958Z,61.71
2022-09-18T14:11:16.455Z,62.04
2022-09-18T14:13:56.170Z,61.30
2022-09-18T14:16:32.973Z,62.39
2022-09-18T14:19:23.029Z,61.14
2022-09-18T14:21:54.146Z,62.86
2022-09-18T14:24:39.254Z,64.77
2022-09-18T14:27:32.294Z,62.35
2022-09-18T14:30:18.041Z,62.51
2022-09-18T14:32:57.238Z,61.64
2022-09-18T14:35:39.668Z,61.56
2022-09-18T14:38:28.044Z,62.49
2022-09-18T14:41:12.070Z,62.80
2022-09-18T14:43:45.535Z,63.13
2022-09-18T14:46:20.974Z,63.61
2022-09-18T14:48:52.181Z,63.76
2022-09-18T14:51:40.639Z,63.62
2022-09-18T14:54:03.607Z,64.29
2022-09-18T14:56:36.984Z,64.29
2022-09-18T14:59:10.389Z,64.18
2022-09-18T15:01:41.322Z,65.34
2022-09-18T15:04:18.191Z,64.29
2022-09-18T15:06:51.318Z,64.25
2022-09-18T15:09:30.478Z,63.07
2022-09-18T15:12:03.131Z,63.06
2022-09-18T15:14:45.367Z,62.66
2022-09-18T15:17:22.600Z,62.37
2022-09-18T15:20:01.964Z,62.95
2022-09-18T15:22:32.391Z,61.73
2022-09-18T15:25:03.220Z,63.08
2022-09-18T15:27:34.195Z,63.09
2022-09-18T15:30:10.263Z,64.03
2022-09-18T15:32:43.728Z,64.68
2022-09-18T15:35:20.063Z,64.62
2022-09-18T15:37:53.892Z,64.93
2022-09-18T15:40:30.416Z,65.59
2022-09-18T15:43:03.574Z,65.11
2022-09-18T15:45:35.949Z,65.52
2022-09-18T15:48:15.218Z,66.01
2022-09-18T15:50:45.681Z,65.82
2022-09-18T15:53:19.359Z,66.15
2022-09-18T15:56:02.253Z,66.77
2022-09-18T15:58:47.652Z,67.77
2022-09-18T16:01:21.112Z,67.15
2022-09-18T16:04:08.411Z,67.60
2022-09-18T16:06:39.683Z,68.02
2022-09-18T16:09:13.100Z,68.31
2022-09-18T16:11:46.109Z,68.57
2022-09-18T16:14:39.934Z,69.18
2022-09-18T16:17:36.427Z,69.69
2022-09-18T16:20:24.694Z,69.09
2022-09-18T16:22:58.636Z,69.46
2022-09-18T16:25:30.333Z,69.95
2022-09-18T16:28:03.683Z,70.80
2022-09-18T16:30:34.065Z,71.29
2022-09-18T16:33:07.564Z,70.82
2022-09-18T16:35:37.938Z,71.69
2022-09-18T16:38:10.318Z,70.75
2022-09-18T16:40:43.379Z,71.20
2022-09-18T16:43:13.864Z,72.71
2022-09-18T16:45:44.622Z,76.48
2022-09-18T16:48:15.540Z,80.97
2022-09-18T16:50:47.392Z,84.33
2022-09-18T16:53:17.783Z,86.72
2022-09-18T16:55:52.050Z,85.37
2022-09-18T16:58:24.841Z,83.65
2022-09-18T17:00:55.328Z,84.22
2022-09-18T17:03:28.308Z,85.02
2022-09-18T17:05:59.250Z,86.26
2022-09-18T17:08:30.897Z,86.48
2022-09-18T17:11:01.280Z,85.47
2022-09-18T17:13:31.591Z,86.63
2022-09-18T17:16:02.299Z,86.63
2022-09-18T17:18:32.730Z,86.97
2022-09-18T17:21:04.364Z,85.25
2022-09-18T17:23:36.565Z,85.87
2022-09-18T17:26:14.392Z,83.94
2022-09-18T17:28:44.683Z,85.55
2022-09-18T17:31:18.155Z,85.83
2022-09-18T17:33:48.835Z,85.97
2022-09-18T17:36:19.887Z,85.03
2022-09-18T17:38:50.514Z,85.41
2022-09-18T17:41:21.345Z,85.78
2022-09-18T17:43:53.483Z,85.30
2022-09-18T17:46:23.803Z,84.88
2022-09-18T17:48:59.084Z,85.30
2022-09-18T17:51:29.720Z,85.39
2022-09-18T17:54:03.181Z,85.01
2022-09-18T17:56:34.872Z,86.12
2022-09-18T17:59:08.143Z,86.76
2022-09-18T18:01:42.608Z,87.39
2022-09-18T18:04:14.039Z,88.55
2022-09-18T18:06:47.373Z,88.32
2022-09-18T18:09:17.659Z,88.29
2022-09-18T18:11:49.512Z,88.61
2022-09-18T18:14:20.210Z,89.31
2022-09-18T18:16:52.559Z,89.50
2022-09-18T18:19:22.874Z,89.68
2022-09-18T18:21:53.821Z,89.58
2022-09-18T18:24:24.216Z,89.54
2022-09-18T18:26:55.673Z,89.53
2022-09-18T18:29:26.409Z,89.55
2022-09-18T18:31:57.074Z,89.31
2022-09-18T18:34:27.661Z,89.34
2022-09-18T18:36:57.995Z,89.32
2022-09-18T18:39:28.398Z,89.55
2022-09-18T18:41:58.884Z,89.54
2022-09-18T18:44:29.242Z,89.83
2022-09-18T18:47:00.935Z,90.06
2022-09-18T18:49:31.514Z,90.15
2022-09-18T18:52:03.656Z,89.97
2022-09-18T18:54:34.036Z,89.84
2022-09-18T18:57:06.250Z,89.86
2022-09-18T18:59:36.851Z,89.82
2022-09-18T19:02:07.567Z,89.96
2022-09-18T19:04:39.758Z,89.93
2022-09-18T19:07:10.910Z,89.71
2022-09-18T19:09:41.292Z,89.68
2022-09-18T19:12:13.218Z,89.67
2022-09-18T19:14:43.608Z,89.55
2022-09-18T19:17:15.557Z,89.42
2022-09-18T19:19:46.338Z,89.35
2022-09-18T19:22:18.681Z,89.03
2022-09-18T19:24:49.079Z,89.20
2022-09-18T19:27:19.446Z,89.22
2022-09-18T19:29:50.272Z,88.92
2022-09-18T19:32:21.123Z,88.54
2022-09-18T19:34:51.408Z,88.30
2022-09-18T19:37:21.805Z,88.65
2022-09-18T19:39:52.111Z,88.16
2022-09-18T19:42:27.339Z,88.06
2022-09-18T19:45:01.551Z,88.08
2022-09-18T19:47:36.910Z,88.36
2022-09-18T19:50:09.739Z,88.18
2022-09-18T19:52:42.030Z,88.12
2022-09-18T19:55:16.951Z,88.48
2022-09-18T19:57:48.199Z,88.54
2022-09-18T20:00:18.844Z,87.92
2022-09-18T20:02:49.362Z,88.16
2022-09-18T20:05:20.092Z,88.15
2022-09-18T20:07:50.544Z,88.28
2022-09-18T20:10:22.838Z,88.78
2022-09-18T20:12:53.882Z,88.78
2022-09-18T20:15:24.112Z,87.94
2022-09-18T20:17:55.688Z,88.04
2022-09-18T20:20:26.831Z,87.77
2022-09-18T20:22:57.493Z,88.19
2022-09-18T20:25:28.025Z,88.33
2022-09-18T20:27:58.403Z,87.94
2022-09-18T20:30:28.764Z,87.79
2022-09-18T20:32:59.142Z,87.25
2022-09-18T20:35:29.604Z,87.77
2022-09-18T20:38:01.740Z,87.59
2022-09-18T20:40:32.549Z,87.56
2022-09-18T20:43:04.252Z,87.29
2022-09-18T20:45:34.795Z,87.34
2022-09-18T20:48:06.390Z,87.58
2022-09-18T20:50:39.084Z,87.30
2022-09-18T20:53:09.443Z,87.07
2022-09-18T20:55:39.813Z,88.10
2022-09-18T20:58:11.324Z,87.56
2022-09-18T21:00:41.788Z,87.46
2022-09-18T21:03:13.364Z,87.50
2022-09-18T21:05:44.395Z,87.67
2022-09-18T21:08:14.966Z,87.45
2022-09-18T21:10:48.240Z,87.41
2022-09-18T21:13:19.970Z,87.67
2022-09-18T21:15:50.307Z,87.42
2022-09-18T21:18:20.658Z,87.77
2022-09-18T21:20:52.580Z,88.00
2022-09-18T21:23:41.276Z,88.08
2022-09-18T21:26:17.449Z,88.43
2022-09-18T21:28:46.010Z,88.80
2022-09-18T21:31:16.464Z,88.51
2022-09-18T21:33:47.348Z,88.37
2022-09-18T21:36:17.811Z,87.70
2022-09-18T21:38:50.237Z,87.91
2022-09-18T21:41:22.198Z,87.40
2022-09-18T21:43:53.923Z,87.46
2022-09-18T21:46:24.367Z,87.75
2022-09-18T21:48:56.377Z,87.83
2022-09-18T21:51:26.699Z,88.08
2022-09-18T21:53:58.665Z,87.98
2022-09-18T21:56:29.063Z,87.67
2022-09-18T21:58:59.946Z,87.80
2022-09-18T22:01:31.806Z,87.89
2022-09-18T22:04:02.973Z,87.71
2022-09-18T22:06:38.248Z,87.85
2022-09-18T22:09:23.222Z,87.74
2022-09-18T22:11:54.722Z,88.11
2022-09-18T22:14:29.329Z,87.68
2022-09-18T22:17:05.248Z,87.82
2022-09-18T22:19:40.634Z,87.77
2022-09-18T22:22:07.886Z,87.64
2022-09-18T22:24:38.787Z,88.18
2022-09-18T22:27:10.184Z,88.09
2022-09-18T22:29:42.008Z,88.13
2022-09-18T22:32:12.376Z,87.97
2022-09-18T22:34:42.820Z,87.60
2022-09-18T22:37:13.286Z,87.94
2022-09-18T22:39:46.088Z,88.15
2022-09-18T22:42:15.866Z,88.00
2022-09-18T22:44:49.653Z,87.72
2022-09-18T22:47:20.083Z,87.53
2022-09-18T22:49:50.600Z,87.60
2022-09-18T22:52:20.901Z,87.55
2022-09-18T22:54:51.231Z,87.66
2022-09-18T22:57:21.599Z,87.75
2022-09-18T22:59:51.983Z,87.30
2022-09-18T23:02:23.202Z,87.78
2022-09-18T23:04:53.680Z,87.92
2022-09-18T23:07:25.568Z,88.23
2022-09-18T23:09:55.888Z,88.11
2022-09-18T23:12:26.168Z,87.62
2022-09-18T23:14:56.596Z,87.70
2022-09-18T23:17:26.976Z,87.14
2022-09-18T23:19:57.973Z,86.61
2022-09-18T23:22:28.282Z,87.02
2022-09-18T23:25:00.013Z,86.79
2022-09-18T23:27:30.386Z,87.25
2022-09-18T23:30:00.714Z,87.28
2022-09-18T23:32:31.200Z,87.11
2022-09-18T23:35:01.626Z,87.20
2022-09-18T23:37:31.975Z,87.26
2022-09-18T23:40:02.643Z,87.00
2022-09-18T23:42:33.088Z,87.25
2022-09-18T23:45:03.466Z,87.15
2022-09-18T23:47:35.516Z,86.91
2022-09-18T23:50:06.293Z,86.78
2022-09-18T23:52:36.607Z,86.93
2022-09-18T23:55:07.058Z,86.93
2022-09-18T23:57:37.558Z,87.15
